createdAt,value
2022-11-08T00:02:35.766Z,65.55
2022-11-08T00:07:56.015Z,66.68
2022-11-08T00:13:16.297Z,58.13
2022-11-08T00:18:18.181Z,60.78
2022-11-08T00:23:20.210Z,59.47
2022-11-08T00:28:22.062Z,58.92
2022-11-08T00:33:23.766Z,51.53
2022-11-08T00:38:25.534Z,54.90
2022-11-08T00:43:27.322Z,57.10
2022-11-08T00:48:29.046Z,66.18
2022-11-08T00:53:30.833Z,59.03
2022-11-08T00:58:32.785Z,59.97
2022-11-08T01:03:34.684Z,56.63
2022-11-08T01:08:36.512Z,53.35
2022-11-08T01:13:38.341Z,57.67
2022-11-08T01:18:41.098Z,52.65
2022-11-08T01:23:43.829Z,56.05
2022-11-08T01:28:46.914Z,48.78
2022-11-08T01:33:51.518Z,49.00
2022-11-08T01:38:54.424Z,54.33
2022-11-08T01:43:58.609Z,46.03
2022-11-08T01:49:27.960Z,52.58
2022-11-08T01:54:43.096Z,58.38
2022-11-08T01:59:46.573Z,57.92
2022-11-08T02:04:48.807Z,54.83
2022-11-08T02:09:50.588Z,63.60
2022-11-08T02:14:52.342Z,62.50
2022-11-08T02:19:54.235Z,60.22
2022-11-08T02:24:58.446Z,62.03
2022-11-08T02:30:00.187Z,67.07
2022-11-08T02:35:02.054Z,55.70
2022-11-08T02:40:05.047Z,57.90
2022-11-08T02:45:07.857Z,59.08
2022-11-08T02:50:10.091Z,60.70
2022-11-08T02:55:11.855Z,54.33
2022-11-08T03:00:14.179Z,51.28
2022-11-08T03:05:15.974Z,57.75
2022-11-08T03:10:18.385Z,49.90
2022-11-08T03:15:20.165Z,58.92
2022-11-08T03:20:21.950Z,51.17
2022-11-08T03:25:23.719Z,51.30
2022-11-08T03:30:25.449Z,52.60
2022-11-08T03:35:27.536Z,52.28
2022-11-08T03:40:29.324Z,50.13
2022-11-08T03:45:31.116Z,50.17
2022-11-08T03:50:32.879Z,48.72
2022-11-08T03:55:34.717Z,43.88
2022-11-08T04:00:36.442Z,45.63
2022-11-08T04:05:38.242Z,41.83
2022-11-08T04:10:39.995Z,39.30
2022-11-08T04:15:41.927Z,41.13
2022-11-08T04:21:05.259Z,38.85
2022-11-08T04:26:08.526Z,41.55
2022-11-08T04:31:16.756Z,38.60
2022-11-08T04:36:18.719Z,35.47
2022-11-08T04:41:22.736Z,39.58
2022-11-08T04:46:29.227Z,40.95
2022-11-08T04:51:33.271Z,34.83
2022-11-08T04:56:35.305Z,41.75
2022-11-08T05:01:37.175Z,40.95
2022-11-08T05:06:38.986Z,49.65
2022-11-08T05:11:40.721Z,35.10
2022-11-08T05:16:42.495Z,35.25
2022-11-08T05:22:02.919Z,40.67
2022-11-08T05:27:04.762Z,38.78
2022-11-08T05:32:06.627Z,42.17
2022-11-08T05:37:08.334Z,39.95
2022-11-08T05:42:10.271Z,40.20
2022-11-08T05:47:12.089Z,36.10
2022-11-08T05:52:13.983Z,38.75
2022-11-08T05:57:19.908Z,40.17
2022-11-08T06:02:23.911Z,44.55
2022-11-08T06:07:25.802Z,49.83
2022-11-08T06:12:27.844Z,40.95
2022-11-08T06:17:30.462Z,44.08
2022-11-08T06:22:33.993Z,35.38
2022-11-08T06:27:36.535Z,39.92
2022-11-08T06:32:38.431Z,43.35
2022-11-08T06:37:40.161Z,37.92
2022-11-08T06:42:41.894Z,34.17
2022-11-08T06:47:43.727Z,38.17
2022-11-08T06:52:45.706Z,39.00
2022-11-08T06:57:47.451Z,48.75
2022-11-08T07:02:53.857Z,41.22
2022-11-08T07:07:58.129Z,37.15
2022-11-08T07:13:02.287Z,31.15
2022-11-08T07:18:13.720Z,31.90
2022-11-08T07:23:15.587Z,30.98
2022-11-08T07:28:19.161Z,34.05
2022-11-08T07:33:21.397Z,26.05
2022-11-08T07:38:23.906Z,22.40
2022-11-08T07:43:27.723Z,22.05
2022-11-08T07:48:30.920Z,28.52
2022-11-08T07:53:32.806Z,23.73
2022-11-08T07:58:34.605Z,31.25
2022-11-08T08:03:36.738Z,20.92
2022-11-08T08:08:38.665Z,28.13
2022-11-08T08:13:40.459Z,21.35
2022-11-08T08:18:42.267Z,19.17
2022-11-08T08:23:44.163Z,24.48
2022-11-08T08:28:45.950Z,23.08
2022-11-08T08:33:47.713Z,22.52
2022-11-08T08:38:50.063Z,19.92
2022-11-08T08:43:51.898Z,28.63
2022-11-08T08:48:53.838Z,20.23
2022-11-08T08:53:55.544Z,27.23
2022-11-08T09:04:19.187Z,27.65
2022-11-08T09:09:21.980Z,28.75
2022-11-08T09:14:23.950Z,29.08
2022-11-08T09:19:25.798Z,18.10
2022-11-08T09:24:27.539Z,21.98
2022-11-08T09:29:30.952Z,25.55
2022-11-08T09:34:32.819Z,23.83
2022-11-08T09:39:34.591Z,22.13
2022-11-08T09:44:56.808Z,24.30
2022-11-08T09:50:13.531Z,23.27
2022-11-08T09:55:37.079Z,21.23
2022-11-08T10:00:40.475Z,25.17
2022-11-08T10:05:52.130Z,23.38
2022-11-08T10:11:06.513Z,28.20
2022-11-08T10:16:17.445Z,20.40
2022-11-08T10:21:28.154Z,24.13
2022-11-08T10:26:42.630Z,22.77
2022-11-08T10:31:47.853Z,20.25
2022-11-08T10:36:54.660Z,22.90
2022-11-08T10:42:11.374Z,24.63
2022-11-08T10:47:20.926Z,30.42
2022-11-08T10:52:41.029Z,23.27
2022-11-08T10:57:45.093Z,21.70
2022-11-08T11:02:48.905Z,17.98
2022-11-08T11:07:56.191Z,18.35
2022-11-08T11:13:02.545Z,25.45
2022-11-08T11:18:17.093Z,19.45
2022-11-08T11:23:19.004Z,11.60
2022-11-08T11:28:20.816Z,13.90
2022-11-08T11:33:24.179Z,15.65
2022-11-08T11:38:31.991Z,16.98
2022-11-08T11:43:36.498Z,11.82
2022-11-08T11:48:55.549Z,13.75
2022-11-08T11:53:58.374Z,16.02
2022-11-08T11:59:15.625Z,16.63
2022-11-08T12:04:35.990Z,14.52
2022-11-08T12:09:53.650Z,10.70
2022-11-08T12:15:20.177Z,13.75
2022-11-08T12:20:45.075Z,13.95
2022-11-08T12:26:01.746Z,13.27
2022-11-08T12:31:35.634Z,11.25
2022-11-08T12:36:46.332Z,13.27
2022-11-08T12:41:50.890Z,14.70
2022-11-08T12:47:30.846Z,16.95
2022-11-08T12:52:41.364Z,20.00
2022-11-08T12:57:44.871Z,15.38
2022-11-08T13:03:28.281Z,14.65
2022-11-08T13:09:01.433Z,13.75
2022-11-08T13:14:03.840Z,15.07
2022-11-08T13:19:06.160Z,10.48
2022-11-08T13:24:38.072Z,7.80
2022-11-08T13:29:31.021Z,10.93
2022-11-08T13:34:44.922Z,18.88
2022-11-08T13:40:02.047Z,16.52
2022-11-08T13:45:34.843Z,9.55
2022-11-08T13:50:47.923Z,11.85
2022-11-08T13:56:22.896Z,15.85
2022-11-08T14:01:24.660Z,14.38
2022-11-08T14:06:51.514Z,17.83
2022-11-08T14:12:10.229Z,19.30
2022-11-08T14:22:32.534Z,19.85
2022-11-08T14:27:40.431Z,19.27
2022-11-08T14:32:42.232Z,20.90
2022-11-08T14:37:44.247Z,21.88
2022-11-08T14:42:46.518Z,18.60
2022-11-08T14:47:54.044Z,24.17
2022-11-08T14:52:56.604Z,22.83
2022-11-08T14:58:12.262Z,22.08
2022-11-08T15:03:17.808Z,25.08
2022-11-08T15:08:26.529Z,23.73
2022-11-08T15:13:32.578Z,29.77
2022-11-08T15:18:40.012Z,31.77
2022-11-08T15:23:55.792Z,30.40
2022-11-08T15:29:19.879Z,26.52
2022-11-08T15:34:38.582Z,25.58
2022-11-08T15:45:17.681Z,21.75
2022-11-08T15:50:31.093Z,17.23
2022-11-08T15:55:46.550Z,22.33
2022-11-08T16:00:49.329Z,19.15
2022-11-08T16:05:51.079Z,20.35
2022-11-08T16:10:59.999Z,17.13
2022-11-08T16:16:03.556Z,21.00
2022-11-08T16:21:05.565Z,18.45
2022-11-08T16:26:13.262Z,15.35
2022-11-08T16:31:17.818Z,15.57
2022-11-08T16:36:25.012Z,15.93
2022-11-08T16:41:27.266Z,18.27
2022-11-08T16:46:29.241Z,22.15
2022-11-08T16:51:31.262Z,17.40
2022-11-08T16:56:33.045Z,24.15
2022-11-08T17:01:34.905Z,29.50
2022-11-08T17:06:36.882Z,28.17
2022-11-08T17:11:39.716Z,25.70
2022-11-08T17:16:41.726Z,31.73
2022-11-08T17:21:45.387Z,22.52
2022-11-08T17:26:47.805Z,22.08
2022-11-08T17:31:49.752Z,22.17
2022-11-08T17:36:52.952Z,23.50
2022-11-08T17:41:54.823Z,12.20
2022-11-08T17:46:56.579Z,17.20
2022-11-08T17:51:58.344Z,14.57
2022-11-08T17:57:00.250Z,15.98
2022-11-08T18:02:02.221Z,14.52
2022-11-08T18:07:04.191Z,23.92
2022-11-08T18:12:06.242Z,15.25
2022-11-08T18:17:08.125Z,17.70
2022-11-08T18:22:10.075Z,17.77
2022-11-08T18:27:12.205Z,11.80
2022-11-08T18:32:14.030Z,12.48
2022-11-08T18:37:15.807Z,13.52
2022-11-08T18:42:17.568Z,21.17
2022-11-08T18:47:19.763Z,12.43
2022-11-08T18:52:21.692Z,14.90
2022-11-08T18:57:23.974Z,20.38
2022-11-08T19:02:25.722Z,15.80
2022-11-08T19:07:27.841Z,15.57
2022-11-08T19:12:29.891Z,14.25
2022-11-08T19:17:32.960Z,19.27
2022-11-08T19:22:34.801Z,17.98
2022-11-08T19:27:36.558Z,17.08
2022-11-08T19:32:38.326Z,19.27
2022-11-08T19:37:40.085Z,16.05
2022-11-08T19:42:41.884Z,20.17
2022-11-08T19:47:43.772Z,24.13
2022-11-08T19:52:45.540Z,23.45
2022-11-08T19:57:47.523Z,20.58
2022-11-08T20:02:50.942Z,20.90
2022-11-08T20:07:52.749Z,22.00
2022-11-08T20:12:54.484Z,21.13
2022-11-08T20:17:56.306Z,23.27
2022-11-08T20:22:58.098Z,26.77
2022-11-08T20:28:00.678Z,24.05
2022-11-08T20:33:02.407Z,27.48
2022-11-08T20:38:04.482Z,28.95
2022-11-08T20:43:07.653Z,28.20
2022-11-08T20:48:09.466Z,29.55
2022-11-08T20:53:11.217Z,32.40
2022-11-08T20:58:12.981Z,31.75
2022-11-08T21:03:18.839Z,28.23
2022-11-08T21:08:58.573Z,30.85
2022-11-08T21:13:44.813Z,30.08
2022-11-08T21:18:46.734Z,23.45
2022-11-08T21:23:49.010Z,31.17
2022-11-08T21:28:52.123Z,29.33
2022-11-08T21:33:53.952Z,33.63
2022-11-08T21:38:55.888Z,32.35
2022-11-08T21:43:58.771Z,37.80
2022-11-08T21:49:02.008Z,42.50
2022-11-08T21:54:04.365Z,36.80
2022-11-08T21:59:06.160Z,39.88
2022-11-08T22:04:08.604Z,41.72
2022-11-08T22:09:10.351Z,46.50
2022-11-08T22:14:12.102Z,48.35
2022-11-08T22:19:14.510Z,47.17
2022-11-08T22:24:20.234Z,45.08
2022-11-08T22:29:22.222Z,43.10
2022-11-08T22:34:24.020Z,51.25
2022-11-08T22:39:26.374Z,47.88
2022-11-08T22:44:28.191Z,50.20
2022-11-08T22:49:30.167Z,39.45
2022-11-08T22:54:31.896Z,49.05
2022-11-08T22:59:33.647Z,44.45
2022-11-08T23:04:35.452Z,54.40
2022-11-08T23:09:37.239Z,43.35
2022-11-08T23:14:57.485Z,50.92
2022-11-08T23:20:18.268Z,45.00
2022-11-08T23:25:20.190Z,53.55
2022-11-08T23:30:40.969Z,53.60
2022-11-08T23:36:02.747Z,38.80
2022-11-08T23:41:24.143Z,49.65
2022-11-08T23:46:25.895Z,44.47
2022-11-08T23:51:27.687Z,40.75
2022-11-08T23:56:29.714Z,44.83
